Time;durP1;ratioP1;P1;durP2;ratioP2;P2;SDS_P1;SDS_P2;PMS_P1;PMS_P2;Temp;Humidity;BMP_temperature;BMP_pressure;BME280_temperature;BME280_humidity;BME280_pressure;Samples;Min_cycle;Max_cycle;Signal;HPM_P1;HPM_P2
2022/04/27 00:02:17;;;;;;;4.30;2.35;;;;;;;11.56;70.83;94752.56;5130111;27;20080;-73
2022/04/27 00:04:43;;;;;;;4.28;2.72;;;;;;;11.48;70.92;94750.66;5123622;27;20046;-74
2022/04/27 00:07:09;;;;;;;3.42;2.40;;;;;;;11.45;71.09;94750.94;5131760;27;20031;-73
2022/04/27 00:09:34;;;;;;;3.40;2.50;;;;;;;11.40;70.90;94755.72;5132245;27;20042;-73
2022/04/27 00:12:01;;;;;;;2.55;2.35;;;;;;;11.31;70.78;94753.91;5119865;27;20035;-73
2022/04/27 00:14:28;;;;;;;3.58;2.60;;;;;;;11.24;70.67;94739.78;5132337;27;20524;-74
2022/04/27 00:16:54;;;;;;;3.00;2.50;;;;;;;11.19;70.60;94747.97;5128475;27;20459;-74
2022/04/27 00:19:19;;;;;;;5.15;3.00;;;;;;;11.12;70.62;94747.69;5132889;27;20049;-74
2022/04/27 00:21:45;;;;;;;3.33;2.45;;;;;;;11.00;70.68;94735.72;5130874;27;20023;-73
2022/04/27 00:24:10;;;;;;;5.05;2.58;;;;;;;11.03;71.29;94747.66;5130084;27;20028;-74
2022/04/27 00:26:36;;;;;;;4.22;3.10;;;;;;;10.93;71.22;94742.44;5131980;27;20039;-74
2022/04/27 00:29:01;;;;;;;3.40;2.63;;;;;;;10.88;71.26;94752.38;5128687;27;20036;-74
2022/04/27 00:31:27;;;;;;;4.10;2.60;;;;;;;10.89;71.44;94743.63;5128025;27;20405;-74
2022/04/27 00:33:53;;;;;;;3.17;2.80;;;;;;;10.79;71.59;94737.59;5123780;27;20035;-73
2022/04/27 00:36:18;;;;;;;4.93;3.00;;;;;;;10.71;71.77;94739.03;5134755;27;20019;-73
2022/04/27 00:38:44;;;;;;;3.65;2.85;;;;;;;10.69;71.86;94738.34;5133521;27;20469;-73
2022/04/27 00:41:09;;;;;;;3.95;3.17;;;;;;;10.62;72.34;94736.41;5116293;27;20496;-73
2022/04/27 00:43:39;;;;;;;3.85;2.83;;;;;;;10.66;72.32;94753.38;5111525;27;20027;-74
2022/04/27 00:46:04;;;;;;;4.03;2.83;;;;;;;10.60;72.15;94749.53;5131858;27;20070;-73
2022/04/27 00:48:30;;;;;;;3.45;2.50;;;;;;;10.55;72.03;94746.47;5104009;28;20051;-74
2022/04/27 00:50:56;;;;;;;2.90;2.60;;;;;;;10.49;72.01;94742.63;5126600;27;20416;-74
2022/04/27 00:53:22;;;;;;;4.88;3.35;;;;;;;10.48;72.36;94745.38;5113763;28;20023;-73
2022/04/27 00:55:47;;;;;;;3.97;2.67;;;;;;;10.43;72.55;94750.09;5101414;28;20031;-73
2022/04/27 00:58:13;;;;;;;4.88;3.13;;;;;;;10.40;73.17;94753.78;5115536;27;20028;-73
2022/04/27 01:00:38;;;;;;;4.47;2.80;;;;;;;10.38;73.11;94744.47;5111496;28;20028;-74
2022/04/27 01:03:04;;;;;;;5.00;2.95;;;;;;;10.35;73.19;94752.53;5117404;27;20042;-74
2022/04/27 01:05:29;;;;;;;4.35;3.33;;;;;;;10.31;73.63;94756.31;5133211;27;20455;-74
2022/04/27 01:07:59;;;;;;;3.90;2.80;;;;;;;10.15;73.15;94739.38;5126107;27;20028;-73
2022/04/27 01:10:26;;;;;;;5.20;2.83;;;;;;;10.25;73.27;94755.84;5121200;27;20035;-74
2022/04/27 01:12:52;;;;;;;5.20;2.75;;;;;;;10.21;73.44;94749.25;5111576;27;20059;-73
2022/04/27 01:15:33;;;;;;;3.30;2.75;;;;;;;10.19;73.53;94752.91;5115282;27;20040;-74
2022/04/27 01:17:58;;;;;;;5.60;3.25;;;;;;;10.17;72.96;94757.41;5123404;27;20050;-73
2022/04/27 01:20:24;;;;;;;3.35;2.78;;;;;;;10.09;73.05;94750.28;5126017;27;20024;-74
2022/04/27 01:22:49;;;;;;;3.88;3.15;;;;;;;10.05;73.18;94743.66;5120631;27;20031;-78
2022/04/27 01:25:15;;;;;;;3.75;3.08;;;;;;;10.05;73.41;94749.66;5106223;27;20027;-78
2022/04/27 01:27:43;;;;;;;3.50;2.83;;;;;;;10.03;73.46;94743.00;5132673;27;20490;-78
2022/04/27 01:30:10;;;;;;;4.90;2.95;;;;;;;10.04;73.79;94745.44;5132536;27;20031;-78
2022/04/27 01:32:36;;;;;;;5.10;3.42;;;;;;;10.04;74.03;94749.81;5132403;27;20065;-77
2022/04/27 01:35:01;;;;;;;6.57;3.20;;;;;;;10.02;73.94;94743.91;5132515;27;20032;-77
2022/04/27 01:40:11;;;;;;;6.95;3.95;;;;;;;10.07;74.68;94742.59;5132541;27;20081;-78
2022/04/27 01:42:37;;;;;;;4.30;3.50;;;;;;;10.14;74.41;94745.53;5131679;27;20027;-78
2022/04/27 01:45:03;;;;;;;4.45;3.20;;;;;;;10.17;74.60;94737.50;5132298;27;20032;-78
2022/04/27 01:47:28;;;;;;;4.70;3.83;;;;;;;10.24;74.38;94738.59;5114480;27;20023;-77
2022/04/27 01:49:53;;;;;;;5.15;4.00;;;;;;;10.31;74.54;94738.13;5114919;27;20568;-78
2022/04/27 01:55:03;;;;;;;4.55;3.28;;;;;;;10.33;73.60;94728.44;5133901;27;20034;-78
2022/04/27 01:57:29;;;;;;;5.20;3.30;;;;;;;10.28;73.24;94729.66;5132207;27;20027;-76
2022/04/27 01:59:55;;;;;;;4.32;3.00;;;;;;;10.22;73.10;94730.16;5131975;27;20037;-78
2022/04/27 02:02:20;;;;;;;5.78;3.10;;;;;;;10.18;72.71;94733.13;5132730;27;20027;-77
2022/04/27 02:04:46;;;;;;;3.30;2.90;;;;;;;10.09;72.58;94737.28;5119627;27;20499;-75
2022/04/27 02:07:11;;;;;;;4.78;3.20;;;;;;;10.06;72.95;94730.56;5127037;27;20039;-72
2022/04/27 02:09:37;;;;;;;4.07;3.45;;;;;;;10.02;72.71;94729.16;5116784;27;20522;-72
2022/04/27 02:12:04;;;;;;;4.10;3.60;;;;;;;9.93;72.96;94726.50;5120166;27;20027;-71
2022/04/27 02:14:30;;;;;;;5.50;3.78;;;;;;;9.90;73.17;94732.78;5119324;27;20054;-72
2022/04/27 02:16:55;;;;;;;4.60;3.60;;;;;;;9.85;73.34;94727.94;5125812;27;20019;-71
2022/04/27 02:19:21;;;;;;;4.13;3.30;;;;;;;9.79;73.12;94736.22;5119693;27;20030;-72
2022/04/27 02:21:47;;;;;;;4.80;3.35;;;;;;;9.76;72.87;94739.06;5127135;27;20504;-71
2022/04/27 02:24:12;;;;;;;4.72;3.90;;;;;;;9.70;73.14;94730.97;5103110;27;20120;-71
2022/04/27 02:26:38;;;;;;;5.20;3.22;;;;;;;9.67;73.06;94734.63;5121682;27;20414;-71
2022/04/27 02:29:03;;;;;;;4.25;3.40;;;;;;;9.67;72.91;94733.78;5120070;27;20027;-71
2022/04/27 02:31:29;;;;;;;6.40;3.67;;;;;;;9.65;73.29;94744.31;5118397;27;20015;-71
2022/04/27 02:33:54;;;;;;;4.75;3.75;;;;;;;9.58;73.08;94725.84;5114371;27;20032;-71
2022/04/27 02:36:21;;;;;;;3.75;3.35;;;;;;;9.57;73.52;94734.53;5122772;27;20031;-71
2022/04/27 02:38:47;;;;;;;4.18;3.42;;;;;;;9.57;73.39;94733.72;5097057;27;20036;-71
2022/04/27 02:41:12;;;;;;;6.13;3.20;;;;;;;9.55;73.26;94733.00;5131466;27;20022;-71
2022/04/27 02:43:37;;;;;;;4.43;3.60;;;;;;;9.51;73.49;94734.22;5129112;27;20023;-72
2022/04/27 02:46:03;;;;;;;4.38;3.50;;;;;;;9.52;73.80;94736.66;5129302;27;20035;-72
2022/04/27 02:48:28;;;;;;;3.53;3.22;;;;;;;9.50;74.04;94732.56;5130051;27;20023;-72
2022/04/27 02:53:38;;;;;;;4.95;3.50;;;;;;;9.40;72.84;94729.88;5123606;27;20557;-71
2022/04/27 02:56:03;;;;;;;6.63;3.90;;;;;;;9.40;72.76;94733.28;5126054;27;20027;-71
2022/04/27 02:58:29;;;;;;;4.47;3.25;;;;;;;9.33;72.93;94726.13;5131100;27;20027;-72
2022/04/27 03:00:54;;;;;;;4.80;3.25;;;;;;;9.31;73.13;94734.03;5127488;27;20030;-71
2022/04/27 03:03:20;;;;;;;4.90;3.63;;;;;;;9.29;73.64;94729.91;5130346;27;20031;-72
2022/04/27 03:05:45;;;;;;;3.88;3.25;;;;;;;9.28;73.60;94733.47;5128963;27;20031;-72
2022/04/27 03:08:11;;;;;;;4.03;3.63;;;;;;;9.22;73.72;94724.41;5126752;27;20038;-72
2022/04/27 03:10:36;;;;;;;7.03;3.92;;;;;;;9.23;74.43;94735.59;5114861;27;20038;-72
2022/04/27 03:13:02;;;;;;;4.03;3.63;;;;;;;9.18;74.26;94735.94;5118684;28;20059;-72
2022/04/27 03:15:27;;;;;;;4.15;3.65;;;;;;;9.15;73.75;94733.59;5124720;28;20390;-72
2022/04/27 03:20:37;;;;;;;5.00;3.42;;;;;;;9.08;74.04;94738.44;5128304;28;20088;-72
2022/04/27 03:23:02;;;;;;;5.32;3.35;;;;;;;9.02;73.02;94744.06;5090595;28;20016;-72
2022/04/27 03:25:27;;;;;;;3.90;3.50;;;;;;;8.92;73.38;94743.97;5122575;28;20043;-72
2022/04/27 03:27:53;;;;;;;7.18;4.40;;;;;;;8.94;73.86;94742.09;5108376;28;20035;-72
2022/04/27 03:30:18;;;;;;;7.95;5.25;;;;;;;8.89;73.90;94744.22;5127256;27;20023;-71
2022/04/27 03:32:44;;;;;;;14.65;9.00;;;;;;;8.85;73.70;94763.50;5128018;28;20121;-72
2022/04/27 03:35:09;;;;;;;17.35;12.07;;;;;;;8.85;73.70;94760.91;5122674;28;20557;-71
2022/04/27 03:37:35;;;;;;;13.02;8.90;;;;;;;8.80;73.67;94749.25;5120943;28;20036;-72
2022/04/27 03:40:00;;;;;;;11.07;6.60;;;;;;;8.79;73.97;94752.81;5127343;27;20023;-72
2022/04/27 03:42:25;;;;;;;8.07;5.90;;;;;;;8.77;73.92;94759.88;5108316;28;20439;-72
2022/04/27 03:44:51;;;;;;;8.43;5.70;;;;;;;8.77;73.58;94765.03;5116253;27;20027;-72
2022/04/27 03:47:16;;;;;;;6.75;4.55;;;;;;;8.73;73.83;94765.28;5117185;28;20027;-73
2022/04/27 03:49:42;;;;;;;6.30;5.18;;;;;;;8.71;73.79;94764.56;5120921;28;20042;-72
2022/04/27 03:52:07;;;;;;;7.90;5.22;;;;;;;8.68;73.83;94767.38;5129651;27;20020;-71
2022/04/27 03:54:32;;;;;;;6.38;5.53;;;;;;;8.63;74.24;94769.50;5125737;28;20396;-71
2022/04/27 03:56:58;;;;;;;6.20;4.22;;;;;;;8.56;74.09;94773.50;5125361;28;20436;-72
2022/04/27 03:59:24;;;;;;;5.32;3.95;;;;;;;8.47;74.44;94762.09;5128079;27;20027;-71
2022/04/27 04:01:49;;;;;;;5.25;4.28;;;;;;;8.58;74.70;94778.56;5129299;27;20250;-71
2022/04/27 04:04:15;;;;;;;6.07;4.60;;;;;;;8.53;74.68;94785.88;5129983;27;20031;-71
2022/04/27 04:06:40;;;;;;;5.15;4.53;;;;;;;8.51;74.94;94778.22;5127664;28;20056;-72
2022/04/27 04:09:06;;;;;;;4.70;4.07;;;;;;;8.55;74.45;94787.38;5128529;27;20024;-71
2022/04/27 04:11:31;;;;;;;6.22;4.30;;;;;;;8.59;74.92;94795.75;5117247;27;20533;-71
2022/04/27 04:13:57;;;;;;;6.50;4.32;;;;;;;8.65;75.23;94790.13;5122553;27;20030;-71
2022/04/27 04:16:22;;;;;;;5.35;4.25;;;;;;;8.72;75.45;94789.53;5112432;28;20016;-71
2022/04/27 04:18:47;;;;;;;5.10;4.40;;;;;;;8.84;75.52;94798.13;5127267;27;20024;-71
2022/04/27 04:21:13;;;;;;;4.75;4.35;;;;;;;8.96;75.71;94796.38;5128625;27;20019;-72
2022/04/27 04:23:38;;;;;;;5.72;4.80;;;;;;;9.06;75.33;94801.69;5124279;28;20416;-71
2022/04/27 04:28:47;;;;;;;5.60;5.00;;;;;;;9.28;75.67;94793.09;5126924;27;20404;-71
2022/04/27 04:31:14;;;;;;;5.55;4.50;;;;;;;9.41;75.04;94801.53;5126074;27;20028;-71
2022/04/27 04:33:39;;;;;;;6.63;4.53;;;;;;;9.58;75.34;94798.44;5133741;27;20019;-71
2022/04/27 04:36:05;;;;;;;5.65;4.85;;;;;;;9.70;74.78;94806.19;5114507;27;20030;-72
2022/04/27 04:38:30;;;;;;;8.48;6.32;;;;;;;9.85;74.60;94813.56;5122230;27;20431;-72
2022/04/27 04:40:56;;;;;;;6.93;6.22;;;;;;;10.03;74.34;94813.06;5110149;28;20028;-73
2022/04/27 04:43:21;;;;;;;5.97;5.25;;;;;;;10.19;74.41;94813.44;5127933;27;20042;-71
2022/04/27 04:45:47;;;;;;;5.93;5.30;;;;;;;10.37;73.90;94808.56;5131088;27;20031;-72
2022/04/27 04:48:13;;;;;;;6.22;5.03;;;;;;;10.62;73.29;94814.34;5130749;27;20027;-72
2022/04/27 04:50:38;;;;;;;8.65;6.70;;;;;;;10.88;72.17;94814.75;5125205;27;20035;-72
2022/04/27 04:53:05;;;;;;;7.82;6.03;;;;;;;11.08;70.90;94818.28;5122728;27;20031;-72
2022/04/27 04:55:30;;;;;;;6.93;6.28;;;;;;;11.29;71.34;94819.06;5133250;27;20085;-72
2022/04/27 04:57:56;;;;;;;7.22;5.82;;;;;;;11.41;70.91;94823.19;5115432;27;20115;-72
2022/04/27 05:00:21;;;;;;;7.15;5.07;;;;;;;11.61;70.11;94829.28;5121340;27;20035;-72
2022/04/27 05:02:47;;;;;;;6.47;5.88;;;;;;;12.00;69.30;94825.97;5126326;27;20110;-72
2022/04/27 05:05:12;;;;;;;6.57;5.50;;;;;;;12.38;67.29;94832.16;5127276;27;20499;-73
2022/04/27 05:07:38;;;;;;;7.03;5.80;;;;;;;12.20;67.08;94812.03;5131156;27;20026;-73
2022/04/27 05:10:05;;;;;;;6.40;5.75;;;;;;;12.36;68.00;94827.06;5126311;27;20054;-73
2022/04/27 05:12:30;;;;;;;9.32;6.13;;;;;;;12.54;66.91;94832.44;5132801;27;20035;-73
2022/04/27 05:14:55;;;;;;;8.93;6.10;;;;;;;12.62;66.75;94829.09;5129545;27;20128;-72
2022/04/27 05:17:22;;;;;;;9.45;6.20;;;;;;;12.65;66.65;94829.69;5108743;27;20023;-72
2022/04/27 05:19:49;;;;;;;7.07;5.30;;;;;;;12.82;66.07;94830.75;5113932;27;20080;-76
2022/04/27 05:22:14;;;;;;;6.13;5.57;;;;;;;12.95;65.76;94825.22;5114727;27;20024;-75
2022/04/27 05:24:40;;;;;;;7.35;5.03;;;;;;;12.93;65.74;94822.75;5114920;27;20417;-79
2022/04/27 05:27:05;;;;;;;7.60;5.28;;;;;;;13.04;66.19;94828.75;5115869;27;20416;-73
2022/04/27 05:32:15;;;;;;;6.25;5.00;;;;;;;13.24;66.10;94835.56;5125952;27;20095;-73
2022/04/27 05:34:40;;;;;;;6.18;5.45;;;;;;;13.37;66.23;94823.06;5128687;27;20467;-72
2022/04/27 05:37:06;;;;;;;5.88;5.20;;;;;;;13.53;66.45;94827.66;5130716;27;20019;-73
2022/04/27 05:39:31;;;;;;;6.25;5.00;;;;;;;13.63;64.87;94827.63;5131006;27;20035;-72
2022/04/27 05:41:57;;;;;;;9.63;7.78;;;;;;;13.66;64.92;94819.50;5132572;27;20087;-72
2022/04/27 05:44:23;;;;;;;6.65;5.45;;;;;;;13.90;64.82;94833.78;5132840;27;20031;-73
2022/04/27 05:46:52;;;;;;;5.38;4.22;;;;;;;14.03;63.24;94831.63;5097114;27;20027;-72
2022/04/27 05:49:18;;;;;;;8.88;5.00;;;;;;;14.15;63.15;94827.00;5131154;27;20027;-73
2022/04/27 05:51:43;;;;;;;9.95;7.53;;;;;;;14.28;63.73;94832.69;5114703;27;20068;-73
2022/04/27 05:54:09;;;;;;;8.70;5.28;;;;;;;14.36;62.15;94827.53;5128633;27;20370;-72
2022/04/27 05:56:34;;;;;;;7.18;5.68;;;;;;;14.41;62.51;94835.75;5093915;28;20471;-72
2022/04/27 05:59:01;;;;;;;8.15;4.78;;;;;;;14.46;62.20;94832.72;5114406;27;20036;-72
2022/04/27 06:01:27;;;;;;;9.25;5.07;;;;;;;14.49;63.19;94828.00;5120331;27;20015;-73
2022/04/27 06:03:53;;;;;;;5.82;4.35;;;;;;;14.70;62.48;94826.88;5116555;27;20092;-72
2022/04/27 06:06:19;;;;;;;5.45;4.18;;;;;;;14.78;62.45;94829.53;5122121;27;20635;-73
2022/04/27 06:08:45;;;;;;;5.70;5.05;;;;;;;14.85;62.14;94821.91;5131362;27;20039;-73
2022/04/27 06:11:10;;;;;;;6.43;4.78;;;;;;;14.94;62.40;94832.28;5132876;27;20481;-73
2022/04/27 06:13:35;;;;;;;6.40;4.43;;;;;;;14.98;61.46;94831.00;5110585;27;20019;-76
2022/04/27 06:16:01;;;;;;;8.75;5.22;;;;;;;14.91;61.40;94831.78;5120865;27;20040;-73
2022/04/27 06:18:27;;;;;;;7.05;4.85;;;;;;;15.02;61.44;94825.47;5112596;27;20015;-77
2022/04/27 06:20:53;;;;;;;6.25;5.20;;;;;;;15.10;61.28;94831.56;5120583;27;20556;-76
2022/04/27 06:23:18;;;;;;;7.28;4.90;;;;;;;15.21;61.08;94833.13;5120889;27;20026;-79
2022/04/27 06:25:47;;;;;;;6.70;5.00;;;;;;;15.32;61.41;94830.25;5129937;27;20035;-75
2022/04/27 06:28:13;;;;;;;8.35;4.93;;;;;;;15.43;60.63;94826.50;5127498;27;20107;-75
2022/04/27 06:30:39;;;;;;;7.45;4.75;;;;;;;15.44;60.91;94828.16;5112396;28;20462;-74
2022/04/27 06:33:05;;;;;;;11.32;4.63;;;;;;;15.42;61.73;94830.09;5093750;27;20042;-73
2022/04/27 06:35:30;;;;;;;18.63;10.57;;;;;;;15.52;61.35;94830.00;5120886;27;20047;-74
2022/04/27 06:37:56;;;;;;;8.27;5.05;;;;;;;15.70;60.59;94827.31;5124249;27;20062;-74
2022/04/27 06:40:22;;;;;;;5.80;4.68;;;;;;;15.70;59.94;94832.56;5119702;27;20031;-74
2022/04/27 06:42:48;;;;;;;11.80;5.00;;;;;;;15.83;58.93;94831.13;5113066;27;20031;-75
2022/04/27 06:45:13;;;;;;;5.45;4.53;;;;;;;15.91;59.79;94829.50;5119919;27;20023;-73
2022/04/27 06:47:38;;;;;;;8.15;4.25;;;;;;;16.03;58.93;94834.28;5105748;27;20023;-72
2022/04/27 06:50:05;;;;;;;10.05;6.35;;;;;;;16.00;60.63;94826.75;5132503;27;20046;-72
2022/04/27 06:52:30;;;;;;;6.55;4.75;;;;;;;15.98;58.64;94826.09;5130362;27;20019;-72
2022/04/27 06:54:55;;;;;;;7.43;4.45;;;;;;;15.97;59.47;94832.31;5128472;27;20038;-72
2022/04/27 06:57:21;;;;;;;14.02;5.35;;;;;;;16.02;60.34;94832.66;5132134;27;20031;-72
2022/04/27 06:59:46;;;;;;;7.38;5.22;;;;;;;16.09;59.59;94828.41;5130704;27;20046;-73
2022/04/27 07:02:13;;;;;;;7.60;5.00;;;;;;;16.14;59.33;94827.94;5131654;27;20019;-72
2022/04/27 07:04:40;;;;;;;7.32;4.95;;;;;;;16.27;59.24;94832.72;5130817;27;20404;-72
2022/04/27 07:07:06;;;;;;;6.05;4.72;;;;;;;16.36;57.70;94834.38;5113160;28;20557;-72
2022/04/27 07:09:31;;;;;;;6.05;4.95;;;;;;;16.28;58.46;94827.31;5088295;27;20031;-73
2022/04/27 07:11:56;;;;;;;6.70;4.65;;;;;;;16.28;58.94;94839.59;5085505;28;20059;-72
2022/04/27 07:14:23;;;;;;;8.07;5.22;;;;;;;16.20;58.09;94839.56;5123584;27;20050;-72
2022/04/27 07:16:48;;;;;;;5.82;4.88;;;;;;;16.22;58.86;94837.63;5111205;28;20035;-72
2022/04/27 07:19:14;;;;;;;7.20;4.70;;;;;;;16.20;58.91;94829.09;5128086;28;20027;-72
2022/04/27 07:21:39;;;;;;;8.63;4.47;;;;;;;16.31;58.95;94836.66;5122192;27;20023;-72
2022/04/27 07:24:05;;;;;;;5.72;4.68;;;;;;;16.40;58.96;94833.03;5129873;27;20061;-72
2022/04/27 07:26:31;;;;;;;6.82;3.95;;;;;;;16.52;59.44;94834.38;5130218;28;20088;-72
2022/04/27 07:28:56;;;;;;;10.60;4.50;;;;;;;16.58;58.77;94829.47;5130737;27;20055;-72
2022/04/27 07:31:22;;;;;;;7.72;4.45;;;;;;;16.73;57.67;94838.31;5131374;27;20030;-72
2022/04/27 07:33:47;;;;;;;7.93;4.93;;;;;;;16.73;57.29;94827.81;5131623;27;20037;-72
2022/04/27 07:36:13;;;;;;;5.60;4.43;;;;;;;16.79;57.06;94829.00;5131714;27;20031;-72
2022/04/27 07:38:38;;;;;;;5.32;4.13;;;;;;;16.77;57.96;94830.97;5130350;28;20053;-72
2022/04/27 07:41:05;;;;;;;7.55;4.55;;;;;;;16.89;57.75;94834.91;5113240;28;20123;-72
2022/04/27 07:43:30;;;;;;;7.43;4.50;;;;;;;17.01;57.28;94833.56;5113271;28;20034;-73
2022/04/27 07:45:55;;;;;;;6.55;4.28;;;;;;;17.13;57.65;94831.41;5131429;27;20031;-72
2022/04/27 07:48:21;;;;;;;6.45;4.68;;;;;;;17.15;56.20;94811.91;5130395;28;20023;-72
2022/04/27 07:50:46;;;;;;;8.68;4.32;;;;;;;17.32;55.97;94825.00;5130305;27;20035;-72
2022/04/27 07:53:12;;;;;;;8.13;4.45;;;;;;;17.43;55.78;94820.19;5131541;27;20019;-72
2022/04/27 07:55:37;;;;;;;8.30;4.82;;;;;;;17.54;55.11;94823.44;5130377;28;20452;-72
2022/04/27 07:58:03;;;;;;;10.27;4.57;;;;;;;17.68;55.00;94825.38;5131510;27;20480;-72
2022/04/27 08:00:29;;;;;;;8.63;4.85;;;;;;;17.73;54.67;94807.28;5113257;28;20420;-72
2022/04/27 08:02:55;;;;;;;5.90;4.68;;;;;;;17.98;54.41;94822.97;5130184;27;20079;-72
2022/04/27 08:05:20;;;;;;;6.05;4.40;;;;;;;17.94;53.47;94819.88;5134924;27;20110;-72
2022/04/27 08:07:46;;;;;;;5.78;4.38;;;;;;;18.03;53.64;94826.72;5117020;27;20027;-72
2022/04/27 08:10:15;;;;;;;5.85;4.50;;;;;;;18.12;53.36;94816.97;5135564;27;20031;-72
2022/04/27 08:12:43;;;;;;;7.28;4.70;;;;;;;18.21;52.91;94805.41;5117317;27;20031;-72
2022/04/27 08:15:09;;;;;;;7.65;4.43;;;;;;;18.30;54.01;94808.81;5116896;27;20047;-72
2022/04/27 08:17:35;;;;;;;5.53;3.97;;;;;;;18.27;53.07;94814.41;5134151;27;20015;-72
2022/04/27 08:22:44;;;;;;;7.30;4.60;;;;;;;18.45;53.17;94819.41;5119423;27;20042;-72
2022/04/27 08:25:10;;;;;;;7.97;4.10;;;;;;;18.61;52.97;94810.56;5116664;27;20027;-72
2022/04/27 08:27:35;;;;;;;6.63;4.28;;;;;;;18.76;52.04;94816.72;5134928;27;20500;-72
2022/04/27 08:30:01;;;;;;;9.68;4.63;;;;;;;18.82;51.47;94808.13;5135246;27;20031;-72
2022/04/27 08:32:26;;;;;;;5.80;4.13;;;;;;;18.82;50.35;94809.94;5133685;27;20023;-72
2022/04/27 08:34:52;;;;;;;6.22;4.75;;;;;;;18.85;51.93;94801.69;5116399;27;20404;-72
2022/04/27 08:37:17;;;;;;;8.02;5.20;;;;;;;18.93;51.09;94806.88;5134827;27;20031;-72
2022/04/27 08:39:42;;;;;;;6.95;4.82;;;;;;;18.95;52.92;94791.72;5134969;27;20500;-72
2022/04/27 08:42:09;;;;;;;8.27;4.50;;;;;;;19.23;50.14;94797.22;5134684;27;20031;-72
2022/04/27 08:44:35;;;;;;;6.45;4.40;;;;;;;19.23;50.28;94794.59;5134789;27;20374;-72
2022/04/27 08:47:01;;;;;;;7.38;4.72;;;;;;;19.25;50.09;94799.66;5133261;27;20035;-72
2022/04/27 08:49:26;;;;;;;8.73;4.68;;;;;;;19.27;48.10;94793.22;5133294;27;20027;-73
2022/04/27 08:51:52;;;;;;;6.88;4.05;;;;;;;19.40;47.53;94800.50;5116109;27;20484;-72
2022/04/27 08:54:18;;;;;;;6.80;4.13;;;;;;;19.39;47.80;94783.06;5133223;27;20055;-72
2022/04/27 08:56:43;;;;;;;7.68;4.05;;;;;;;19.41;47.63;94786.31;5116064;27;20397;-72
2022/04/27 08:59:09;;;;;;;7.15;4.22;;;;;;;19.52;47.96;94774.50;5133128;27;20039;-72
2022/04/27 09:01:34;;;;;;;7.35;4.18;;;;;;;19.62;48.33;94782.94;5134284;27;20024;-73
2022/04/27 09:04:20;;;;;;;8.88;4.38;;;;;;;19.75;47.44;94784.94;5132916;27;20031;-72
2022/04/27 09:06:47;;;;;;;9.23;4.25;;;;;;;19.81;46.87;94784.22;5132511;27;20516;-72
2022/04/27 09:09:37;;;;;;;7.18;4.28;;;;;;;19.86;45.87;94779.19;5134202;27;20473;-72
2022/04/27 09:12:08;;;;;;;7.80;3.67;;;;;;;19.95;43.66;94770.19;5134117;27;20019;-72
2022/04/27 09:14:37;;;;;;;5.90;3.65;;;;;;;19.94;44.79;94763.28;5133458;27;20424;-72
2022/04/27 09:22:44;;;;;;;13.80;4.85;;;;;;;20.01;45.72;94772.09;5118281;27;20033;-72
2022/04/27 09:25:10;;;;;;;7.95;4.25;;;;;;;19.99;45.99;94746.91;5115512;27;20023;-73
2022/04/27 09:27:36;;;;;;;6.75;4.32;;;;;;;20.12;46.46;94754.16;5132457;27;20477;-72
2022/04/27 09:30:01;;;;;;;6.43;4.20;;;;;;;20.21;46.82;94764.38;5132681;27;20096;-72
2022/04/27 09:32:27;;;;;;;5.30;4.05;;;;;;;20.21;46.06;94756.47;5133959;27;20083;-74
2022/04/27 09:34:54;;;;;;;7.22;4.13;;;;;;;20.27;47.24;94755.72;5115306;27;20031;-73
2022/04/27 09:37:28;;;;;;;5.35;4.07;;;;;;;20.36;46.45;94748.50;5115295;27;20023;-72
2022/04/27 09:40:06;;;;;;;6.13;4.40;;;;;;;20.39;46.30;94747.31;5133855;27;20296;-72
2022/04/27 09:42:36;;;;;;;7.68;4.47;;;;;;;20.39;45.94;94745.47;5133703;27;20039;-72
2022/04/27 09:45:18;;;;;;;7.13;4.57;;;;;;;20.38;45.25;94746.50;5132226;27;20039;-73
2022/04/27 09:47:48;;;;;;;8.43;4.40;;;;;;;20.49;44.92;94737.25;5115166;27;20034;-73
2022/04/27 09:50:14;;;;;;;5.93;4.10;;;;;;;20.59;45.17;94740.44;5115081;27;20113;-72
2022/04/27 09:52:40;;;;;;;8.23;4.07;;;;;;;20.59;45.10;94735.16;5133428;27;20027;-73
2022/04/27 09:55:06;;;;;;;8.25;4.28;;;;;;;20.60;45.74;94735.97;5097884;27;20497;-73
2022/04/27 09:57:37;;;;;;;6.43;3.80;;;;;;;20.68;43.57;94714.72;5132240;27;20035;-73
2022/04/27 10:00:03;;;;;;;8.80;3.70;;;;;;;20.73;44.05;94734.25;5132079;27;20533;-73
2022/04/27 10:02:30;;;;;;;6.15;4.10;;;;;;;20.80;44.57;94733.47;5131804;27;20031;-72
2022/04/27 10:04:56;;;;;;;9.93;3.47;;;;;;;20.92;40.42;94726.63;5115014;27;20023;-72
2022/04/27 10:07:22;;;;;;;9.52;5.10;;;;;;;20.92;40.85;94718.72;5114564;27;20046;-73
2022/04/27 10:09:49;;;;;;;9.65;4.25;;;;;;;21.05;41.22;94725.94;5114623;27;20031;-73
2022/04/27 10:12:16;;;;;;;7.53;4.07;;;;;;;21.13;41.14;94733.69;5114841;27;20045;-73
2022/04/27 10:14:42;;;;;;;6.63;4.05;;;;;;;21.24;41.40;94733.16;5132611;27;20158;-73
2022/04/27 10:17:08;;;;;;;5.70;3.60;;;;;;;21.19;42.45;94728.44;5132817;27;20023;-72
2022/04/27 10:19:33;;;;;;;6.63;3.90;;;;;;;21.22;41.05;94732.53;5097367;27;20058;-73
2022/04/27 10:22:05;;;;;;;6.10;3.92;;;;;;;21.27;40.06;94724.03;5131465;27;20507;-73
2022/04/27 10:24:42;;;;;;;7.28;3.60;;;;;;;21.40;35.19;94722.31;5131572;27;20031;-72
2022/04/27 10:27:18;;;;;;;4.90;3.80;;;;;;;21.38;37.01;94724.31;5130471;27;20031;-72
2022/04/27 10:30:00;;;;;;;7.75;3.92;;;;;;;21.44;38.51;94713.97;5131380;27;20039;-72
2022/04/27 10:32:38;;;;;;;6.60;3.35;;;;;;;21.45;37.37;94715.59;5114189;27;20027;-73
2022/04/27 10:35:19;;;;;;;5.75;3.90;;;;;;;21.46;39.05;94714.59;5131342;27;20038;-72
2022/04/27 10:37:48;;;;;;;5.47;3.65;;;;;;;21.48;39.51;94717.84;5132454;27;20034;-72
2022/04/27 10:40:38;;;;;;;5.97;2.95;;;;;;;21.51;38.30;94712.19;5131237;27;20584;-72
2022/04/27 10:43:15;;;;;;;6.07;2.95;;;;;;;21.54;38.39;94706.50;5131117;27;20074;-72
2022/04/27 10:45:41;;;;;;;8.60;3.55;;;;;;;21.54;38.78;94701.22;5132058;27;20118;-72
2022/04/27 10:48:36;;;;;;;8.38;3.88;;;;;;;21.61;39.16;94691.47;5131044;27;20508;-72
2022/04/27 10:51:03;;;;;;;7.10;3.47;;;;;;;21.70;39.65;94692.13;5136285;27;20054;-73
2022/04/27 10:53:39;;;;;;;5.32;3.60;;;;;;;21.77;39.32;94690.31;5133343;27;20534;-72
2022/04/27 10:56:19;;;;;;;6.03;4.05;;;;;;;21.89;40.45;94693.19;5133191;27;20042;-72
2022/04/27 10:58:45;;;;;;;7.32;3.33;;;;;;;21.96;38.26;94684.28;5149507;27;20091;-73
2022/04/27 11:01:11;;;;;;;7.18;3.55;;;;;;;21.99;39.59;94685.69;5150389;27;20458;-73
2022/04/27 11:03:43;;;;;;;7.15;3.70;;;;;;;22.03;38.93;94678.97;5150296;27;20027;-72
2022/04/27 11:06:10;;;;;;;9.13;4.15;;;;;;;22.14;39.02;94683.69;5150413;27;20073;-72
2022/04/27 11:08:47;;;;;;;7.97;3.45;;;;;;;22.08;39.37;94680.00;5115862;27;20027;-72
2022/04/27 11:11:15;;;;;;;6.10;3.58;;;;;;;22.11;38.92;94668.22;5132800;27;20217;-73
2022/04/27 11:13:40;;;;;;;12.73;3.83;;;;;;;22.20;38.23;94667.03;5116115;27;20035;-72
2022/04/27 11:16:10;;;;;;;5.28;3.05;;;;;;;22.28;36.69;94658.88;5132858;27;20115;-72
2022/04/27 11:18:57;;;;;;;7.57;2.70;;;;;;;22.29;36.53;94655.25;5133078;27;20499;-72
2022/04/27 11:21:25;;;;;;;7.35;3.38;;;;;;;22.28;38.14;94643.00;5129919;28;20039;-73
2022/04/27 11:23:51;;;;;;;6.80;3.08;;;;;;;22.46;37.56;94653.00;5130408;28;20031;-72
2022/04/27 11:26:17;;;;;;;6.80;3.20;;;;;;;22.45;37.26;94647.91;5130530;28;20042;-72
2022/04/27 11:28:42;;;;;;;7.43;3.22;;;;;;;22.50;36.61;94656.84;5130548;28;20554;-73
2022/04/27 11:31:09;;;;;;;6.85;2.70;;;;;;;22.58;36.61;94655.84;5130458;28;20465;-73
2022/04/27 11:33:39;;;;;;;7.05;3.00;;;;;;;22.51;35.55;94641.78;5113307;28;20023;-73
2022/04/27 11:36:04;;;;;;;4.75;2.60;;;;;;;22.51;35.80;94641.78;5130519;28;20027;-72
2022/04/27 11:38:37;;;;;;;5.13;3.10;;;;;;;22.35;36.74;94644.88;5133562;27;20087;-72
2022/04/27 11:41:03;;;;;;;5.35;2.70;;;;;;;22.41;36.37;94638.75;5134626;27;20501;-72
2022/04/27 11:43:33;;;;;;;7.65;2.78;;;;;;;22.39;37.99;94638.94;5134535;27;20030;-72
2022/04/27 11:45:59;;;;;;;6.97;2.65;;;;;;;22.46;36.94;94636.31;5117601;27;20039;-72
2022/04/27 11:48:31;;;;;;;5.35;2.85;;;;;;;22.43;37.99;94623.50;5134430;27;20019;-72
2022/04/27 11:50:57;;;;;;;7.45;2.60;;;;;;;22.38;37.93;94625.94;5134354;27;20028;-72
2022/04/27 11:53:22;;;;;;;7.10;2.50;;;;;;;22.46;39.20;94617.78;5100215;27;20059;-73
2022/04/27 11:55:49;;;;;;;4.65;2.50;;;;;;;22.45;37.93;94616.16;5134267;27;20066;-72
2022/04/27 11:58:21;;;;;;;5.30;2.50;;;;;;;22.60;38.16;94608.00;5135547;27;20020;-73